createdAt,value
2022-12-29T00:01:03.622Z,-3.00
2022-12-29T00:03:32.050Z,-3.00
2022-12-29T00:05:59.949Z,-3.00
2022-12-29T00:08:43.295Z,-2.90
2022-12-29T00:11:21.113Z,-2.80
2022-12-29T00:14:08.076Z,-2.70
2022-12-29T00:16:37.037Z,-2.80
2022-12-29T00:19:05.872Z,-2.90
2022-12-29T00:21:51.897Z,-3.00
2022-12-29T00:24:27.775Z,-3.00
2022-12-29T00:27:23.318Z,-3.00
2022-12-29T00:30:09.700Z,-3.00
2022-12-29T00:32:56.142Z,-3.10
2022-12-29T00:35:51.654Z,-3.00
2022-12-29T00:38:38.262Z,-3.10
2022-12-29T00:41:24.730Z,-3.00
2022-12-29T00:44:07.353Z,-2.90
2022-12-29T00:46:38.105Z,-2.90
2022-12-29T00:49:26.824Z,-3.00
2022-12-29T00:51:55.839Z,-3.00
2022-12-29T00:54:23.984Z,-3.10
2022-12-29T00:56:53.283Z,-3.00
2022-12-29T00:59:22.035Z,-3.00
2022-12-29T01:01:50.223Z,-3.00
2022-12-29T01:04:17.991Z,-3.00
2022-12-29T01:06:46.857Z,-3.00
2022-12-29T01:09:36.752Z,-2.90
2022-12-29T01:12:05.749Z,-2.90
2022-12-29T01:14:34.300Z,-3.00
2022-12-29T01:17:09.352Z,-3.10
2022-12-29T01:19:37.344Z,-3.20
2022-12-29T01:22:06.902Z,-3.00
2022-12-29T01:24:34.952Z,-2.80
2022-12-29T01:27:03.051Z,-2.70
2022-12-29T01:29:30.935Z,-2.60
2022-12-29T01:31:58.786Z,-2.60
2022-12-29T01:34:26.847Z,-2.60
2022-12-29T01:36:54.638Z,-2.60
2022-12-29T01:39:22.398Z,-2.60
2022-12-29T01:41:50.161Z,-2.60
2022-12-29T01:44:55.657Z,-2.60
2022-12-29T01:47:29.739Z,-2.60
2022-12-29T01:50:00.403Z,-2.60
2022-12-29T01:52:33.278Z,-2.50
2022-12-29T01:55:04.535Z,-2.50
2022-12-29T01:57:40.665Z,-2.40
2022-12-29T02:00:15.145Z,-2.40
2022-12-29T02:03:01.361Z,-2.20
2022-12-29T02:05:37.891Z,-2.20
2022-12-29T02:08:05.999Z,-2.10
2022-12-29T02:10:37.385Z,-1.90
2022-12-29T02:13:05.029Z,-2.00
2022-12-29T02:15:46.818Z,-2.00
2022-12-29T02:18:20.826Z,-2.00
2022-12-29T02:21:07.461Z,-1.90
2022-12-29T02:24:12.637Z,-1.80
2022-12-29T02:27:05.159Z,-1.80
2022-12-29T02:29:44.844Z,-1.70
2022-12-29T02:32:15.334Z,-1.70
2022-12-29T02:35:22.763Z,-1.70
2022-12-29T02:37:53.465Z,-1.70
2022-12-29T02:40:43.821Z,-1.70
2022-12-29T02:43:18.040Z,-1.70
2022-12-29T02:45:49.919Z,-1.80
2022-12-29T02:48:30.713Z,-1.60
2022-12-29T02:50:58.461Z,-1.70
2022-12-29T02:53:45.823Z,-1.60
2022-12-29T02:56:13.479Z,-1.60
2022-12-29T02:58:42.849Z,-1.60
2022-12-29T03:01:41.248Z,-1.60
2022-12-29T03:04:40.752Z,-1.60
2022-12-29T03:07:30.729Z,-1.60
2022-12-29T03:10:07.664Z,-1.50
2022-12-29T03:13:06.093Z,-1.50
2022-12-29T03:16:03.781Z,-1.50
2022-12-29T03:18:52.658Z,-1.60
2022-12-29T03:21:54.606Z,-1.60
2022-12-29T03:24:28.558Z,-1.50
2022-12-29T03:27:02.161Z,-1.50
2022-12-29T03:29:40.985Z,-1.60
2022-12-29T03:32:12.921Z,-1.70
2022-12-29T03:34:41.432Z,-1.70
2022-12-29T03:37:16.306Z,-1.70
2022-12-29T03:39:46.925Z,-1.70
2022-12-29T03:42:21.069Z,-1.70
2022-12-29T03:44:49.026Z,-1.80
2022-12-29T03:47:17.769Z,-1.80
2022-12-29T03:49:47.957Z,-1.70
2022-12-29T03:52:16.137Z,-1.90
2022-12-29T03:54:46.242Z,-1.80
2022-12-29T03:57:14.717Z,-1.80
2022-12-29T03:59:57.361Z,-1.60
2022-12-29T04:02:25.409Z,-1.60
2022-12-29T04:04:54.231Z,-1.70
2022-12-29T04:07:22.148Z,-1.60
2022-12-29T04:09:50.545Z,-1.70
2022-12-29T04:12:22.816Z,-1.70
2022-12-29T04:14:50.628Z,-1.70
2022-12-29T04:17:19.629Z,-1.70
2022-12-29T04:19:50.115Z,-1.80
2022-12-29T04:22:18.168Z,-1.90
2022-12-29T04:24:46.451Z,-2.10
2022-12-29T04:27:14.499Z,-2.10
2022-12-29T04:29:53.608Z,-2.10
2022-12-29T04:32:37.545Z,-2.30
2022-12-29T04:35:05.871Z,-2.10
2022-12-29T04:37:33.499Z,-2.00
2022-12-29T04:40:02.226Z,-2.00
2022-12-29T04:42:30.810Z,-2.00
2022-12-29T04:44:58.583Z,-2.00
2022-12-29T04:47:38.984Z,-2.00
2022-12-29T04:50:26.422Z,-2.10
2022-12-29T04:53:06.972Z,-2.00
2022-12-29T04:55:35.216Z,-2.00
2022-12-29T04:58:02.977Z,-2.10
2022-12-29T05:00:33.770Z,-2.20
2022-12-29T05:03:03.091Z,-2.10
2022-12-29T05:05:31.704Z,-2.00
2022-12-29T05:08:00.075Z,-2.00
2022-12-29T05:10:28.720Z,-2.00
2022-12-29T05:13:01.266Z,-2.10
2022-12-29T05:15:29.475Z,-2.10
2022-12-29T05:17:57.091Z,-2.10
2022-12-29T05:20:25.891Z,-2.20
2022-12-29T05:22:53.761Z,-2.10
2022-12-29T05:25:22.011Z,-2.10
2022-12-29T05:28:05.802Z,-2.10
2022-12-29T05:30:50.918Z,-2.20
2022-12-29T05:33:20.874Z,-2.20
2022-12-29T05:35:50.870Z,-2.10
2022-12-29T05:38:19.727Z,-2.10
2022-12-29T05:40:47.746Z,-2.10
2022-12-29T05:43:30.146Z,-2.10
2022-12-29T05:46:18.107Z,-2.10
2022-12-29T05:49:05.747Z,-2.10
2022-12-29T05:51:48.496Z,-2.10
2022-12-29T05:54:16.633Z,-2.10
2022-12-29T05:56:44.464Z,-2.10
2022-12-29T05:59:12.286Z,-2.10
2022-12-29T06:01:40.733Z,-2.10
2022-12-29T06:04:09.250Z,-2.20
2022-12-29T06:06:37.256Z,-2.30
2022-12-29T06:09:05.408Z,-2.20
2022-12-29T06:11:33.471Z,-2.40
2022-12-29T06:14:02.480Z,-2.50
2022-12-29T06:16:30.184Z,-2.40
2022-12-29T06:19:01.176Z,-2.40
2022-12-29T06:21:29.227Z,-2.40
2022-12-29T06:23:56.733Z,-2.40
2022-12-29T06:26:24.854Z,-2.60
2022-12-29T06:28:52.564Z,-2.50
2022-12-29T06:31:20.395Z,-2.50
2022-12-29T06:33:50.257Z,-2.50
2022-12-29T06:36:18.535Z,-2.50
2022-12-29T06:38:46.345Z,-2.40
2022-12-29T06:41:14.153Z,-2.40
2022-12-29T06:44:00.469Z,-2.40
2022-12-29T06:46:38.230Z,-2.40
2022-12-29T06:49:06.018Z,-2.30
2022-12-29T06:51:33.831Z,-2.40
2022-12-29T06:54:01.893Z,-2.40
2022-12-29T06:56:29.679Z,-2.40
2022-12-29T06:58:57.656Z,-2.30
2022-12-29T07:01:25.398Z,-2.20
2022-12-29T07:03:53.286Z,-2.40
2022-12-29T07:06:21.314Z,-2.30
2022-12-29T07:08:49.391Z,-2.10
2022-12-29T07:11:17.357Z,-1.90
2022-12-29T07:13:45.192Z,-2.00
2022-12-29T07:16:13.238Z,-1.80
2022-12-29T07:18:41.222Z,-1.70
2022-12-29T07:21:09.190Z,-1.50
2022-12-29T07:23:37.005Z,-1.40
2022-12-29T07:26:07.096Z,-1.30
2022-12-29T07:28:35.949Z,-1.40
2022-12-29T07:31:03.651Z,-1.30
2022-12-29T07:33:32.496Z,-1.30
2022-12-29T07:36:01.577Z,-1.30
2022-12-29T07:38:29.821Z,-1.30
2022-12-29T07:41:02.150Z,-1.00
2022-12-29T07:43:30.347Z,-0.90
2022-12-29T07:46:53.727Z,-0.90
2022-12-29T07:49:14.532Z,-0.70
2022-12-29T07:51:42.233Z,-0.60
2022-12-29T07:54:10.584Z,-0.50
2022-12-29T07:56:38.968Z,-0.40
2022-12-29T07:59:08.037Z,-0.30
2022-12-29T08:01:36.060Z,-0.40
2022-12-29T08:04:04.007Z,-0.30
2022-12-29T08:06:32.314Z,-0.30
2022-12-29T08:09:08.168Z,-0.10
2022-12-29T08:11:41.596Z,0.00
2022-12-29T08:14:09.350Z,0.20
2022-12-29T08:16:37.488Z,0.40
2022-12-29T08:19:06.182Z,0.60
2022-12-29T08:21:33.971Z,0.10
2022-12-29T08:24:02.078Z,0.60
2022-12-29T08:26:30.260Z,0.90
2022-12-29T08:28:58.597Z,1.40
2022-12-29T08:31:26.927Z,1.60
2022-12-29T08:33:54.705Z,1.70
2022-12-29T08:36:22.556Z,1.70
2022-12-29T08:38:51.325Z,1.90
2022-12-29T08:41:19.307Z,2.20
2022-12-29T08:43:49.205Z,2.90
2022-12-29T08:46:18.489Z,3.40
2022-12-29T08:48:46.870Z,2.80
2022-12-29T08:51:15.930Z,4.90
2022-12-29T08:53:45.071Z,8.30
2022-12-29T08:56:13.044Z,10.90
2022-12-29T08:58:47.955Z,12.90
2022-12-29T09:01:15.932Z,14.60
2022-12-29T09:06:38.113Z,15.70
2022-12-29T09:09:08.376Z,13.60
2022-12-29T09:11:36.709Z,13.50
2022-12-29T09:14:05.407Z,17.30
2022-12-29T09:16:33.234Z,18.60
2022-12-29T09:19:02.273Z,19.30
2022-12-29T09:21:30.388Z,20.50
2022-12-29T09:23:58.460Z,20.00
2022-12-29T09:26:27.122Z,20.60
2022-12-29T09:28:54.987Z,19.80
2022-12-29T09:31:23.582Z,19.90
2022-12-29T09:33:51.501Z,21.40
2022-12-29T09:36:19.581Z,17.70
2022-12-29T09:38:47.379Z,20.40
2022-12-29T09:41:36.307Z,21.70
2022-12-29T09:44:10.477Z,23.60
2022-12-29T09:46:46.816Z,24.00
2022-12-29T09:49:26.738Z,24.00
2022-12-29T09:51:57.641Z,21.40
2022-12-29T09:54:38.044Z,20.00
2022-12-29T09:57:06.446Z,18.80
2022-12-29T09:59:43.498Z,16.70
2022-12-29T10:02:40.457Z,14.30
2022-12-29T10:05:16.773Z,13.10
2022-12-29T10:08:02.188Z,13.20
2022-12-29T10:10:46.137Z,14.50
2022-12-29T10:13:51.497Z,12.80
2022-12-29T10:16:38.096Z,13.50
2022-12-29T10:19:33.667Z,12.20
2022-12-29T10:22:29.037Z,11.30
2022-12-29T10:25:03.825Z,12.10
2022-12-29T10:27:35.272Z,12.20
2022-12-29T10:30:04.725Z,11.30
2022-12-29T10:32:42.490Z,13.20
2022-12-29T10:35:21.165Z,16.90
2022-12-29T10:38:11.964Z,19.20
2022-12-29T10:40:47.704Z,19.70
2022-12-29T10:43:21.294Z,20.10
2022-12-29T10:45:49.894Z,17.90
2022-12-29T10:48:30.090Z,17.10
2022-12-29T10:51:02.775Z,15.80
2022-12-29T10:54:24.722Z,11.70
2022-12-29T10:57:01.804Z,11.30
2022-12-29T10:59:36.724Z,11.40
2022-12-29T11:02:13.481Z,10.90
2022-12-29T11:04:48.664Z,10.60
2022-12-29T11:07:25.077Z,10.50
2022-12-29T11:09:55.533Z,10.30
2022-12-29T11:12:31.840Z,10.60
2022-12-29T11:15:08.810Z,10.20
2022-12-29T11:17:47.439Z,10.10
2022-12-29T11:20:40.537Z,10.00
2022-12-29T11:23:35.964Z,10.20
2022-12-29T11:26:12.830Z,9.80
2022-12-29T11:28:43.230Z,9.60
2022-12-29T11:31:12.232Z,9.00
2022-12-29T11:33:40.912Z,8.80
2022-12-29T11:36:16.975Z,8.90
2022-12-29T11:38:51.293Z,8.50
2022-12-29T11:41:31.975Z,8.30
2022-12-29T11:44:04.874Z,8.10
2022-12-29T11:46:36.777Z,8.20
2022-12-29T11:49:06.403Z,8.20
2022-12-29T11:51:58.576Z,8.20
2022-12-29T11:54:33.911Z,8.60
2022-12-29T11:57:12.812Z,8.80
2022-12-29T12:00:00.316Z,8.90
2022-12-29T12:02:37.241Z,8.90
2022-12-29T12:05:16.262Z,9.20
2022-12-29T12:07:47.876Z,9.10
2022-12-29T12:10:28.509Z,8.80
2022-12-29T12:13:23.813Z,8.70
2022-12-29T12:16:01.093Z,8.90
2022-12-29T12:18:41.474Z,8.80
2022-12-29T12:21:41.890Z,8.90
2022-12-29T12:24:31.598Z,9.00
2022-12-29T12:27:19.209Z,10.20
2022-12-29T12:29:53.430Z,12.10
2022-12-29T12:32:44.626Z,12.90
2022-12-29T12:35:21.322Z,12.90
2022-12-29T12:38:23.966Z,12.50
2022-12-29T12:41:21.356Z,12.50
2022-12-29T12:44:00.620Z,11.60
2022-12-29T12:46:50.259Z,10.70
2022-12-29T12:49:24.550Z,12.10
2022-12-29T12:52:13.179Z,12.00
2022-12-29T12:54:43.877Z,12.90
2022-12-29T12:57:34.627Z,11.90
2022-12-29T13:00:06.563Z,11.50
2022-12-29T13:02:34.973Z,10.70
2022-12-29T13:05:14.478Z,10.80
2022-12-29T13:08:04.585Z,10.10
2022-12-29T13:10:53.479Z,9.10
2022-12-29T13:13:43.406Z,8.30
2022-12-29T13:16:37.219Z,7.70
2022-12-29T13:19:11.367Z,7.40
2022-12-29T13:22:16.971Z,7.10
2022-12-29T13:25:20.198Z,6.90
2022-12-29T13:28:06.353Z,6.50
2022-12-29T13:30:45.194Z,5.90
2022-12-29T13:33:22.158Z,5.70
2022-12-29T13:36:13.942Z,5.60
2022-12-29T13:38:48.090Z,5.60
2022-12-29T13:41:29.215Z,5.40
2022-12-29T13:43:58.775Z,5.30
2022-12-29T13:46:32.807Z,5.20
2022-12-29T13:49:05.509Z,4.80
2022-12-29T13:51:34.959Z,4.50
2022-12-29T13:54:41.733Z,4.50
2022-12-29T13:57:27.548Z,4.30
2022-12-29T14:00:05.520Z,4.40
2022-12-29T14:03:18.325Z,4.30
2022-12-29T14:06:05.571Z,4.20
2022-12-29T14:08:39.528Z,4.10
2022-12-29T14:11:12.387Z,4.00
2022-12-29T14:13:44.456Z,3.90
2022-12-29T14:16:37.557Z,3.70
2022-12-29T14:19:31.122Z,3.30
2022-12-29T14:22:03.678Z,3.20
2022-12-29T14:24:37.339Z,3.10
2022-12-29T14:27:11.994Z,3.10
2022-12-29T14:29:40.400Z,3.00
2022-12-29T14:32:32.524Z,2.90
2022-12-29T14:35:22.554Z,2.70
2022-12-29T14:38:28.720Z,2.60
2022-12-29T14:41:48.631Z,2.60
2022-12-29T14:44:22.217Z,2.20
2022-12-29T14:47:01.814Z,2.20
2022-12-29T14:49:33.411Z,2.00
2022-12-29T14:52:26.833Z,2.10
2022-12-29T14:55:08.082Z,2.10
2022-12-29T14:57:51.887Z,2.00
2022-12-29T15:00:27.563Z,2.00
2022-12-29T15:03:27.480Z,1.90
2022-12-29T15:06:06.116Z,1.70
2022-12-29T15:08:42.114Z,1.50
2022-12-29T15:11:25.945Z,1.30
2022-12-29T15:14:02.523Z,1.20
2022-12-29T15:16:41.409Z,1.30
2022-12-29T15:19:23.832Z,1.50
2022-12-29T15:21:52.105Z,1.40
2022-12-29T15:24:20.742Z,1.50
2022-12-29T15:26:57.695Z,1.60
2022-12-29T15:29:44.643Z,1.50
2022-12-29T15:32:19.440Z,1.40
2022-12-29T15:34:54.905Z,1.20
2022-12-29T15:37:35.164Z,1.20
2022-12-29T15:40:05.567Z,1.10
2022-12-29T15:42:33.266Z,1.10
2022-12-29T15:45:11.086Z,0.80
2022-12-29T15:47:41.541Z,0.80
2022-12-29T15:50:32.464Z,0.80
2022-12-29T15:53:02.204Z,0.90
2022-12-29T15:55:39.464Z,0.80
2022-12-29T15:58:26.082Z,0.70
2022-12-29T16:01:04.399Z,0.60
2022-12-29T16:03:37.453Z,0.60
2022-12-29T16:06:12.182Z,0.50
2022-12-29T16:08:42.017Z,0.60
2022-12-29T16:11:35.819Z,0.60
2022-12-29T16:14:17.787Z,0.80
2022-12-29T16:16:50.150Z,0.80
2022-12-29T16:19:40.929Z,0.90
2022-12-29T16:22:18.220Z,1.00
2022-12-29T16:24:48.003Z,1.00
2022-12-29T16:27:30.150Z,1.00
2022-12-29T16:30:01.371Z,0.80
2022-12-29T16:32:31.760Z,0.70
2022-12-29T16:35:23.041Z,0.70
2022-12-29T16:38:09.453Z,0.60
2022-12-29T16:40:53.668Z,0.50
2022-12-29T16:43:36.238Z,0.40
2022-12-29T16:46:19.034Z,0.30
2022-12-29T16:48:53.815Z,0.20
2022-12-29T16:51:31.886Z,0.10
2022-12-29T16:54:07.426Z,0.00
2022-12-29T16:56:37.730Z,0.00
2022-12-29T16:59:30.937Z,0.00
2022-12-29T17:02:01.741Z,0.00
2022-12-29T17:04:31.683Z,0.00
2022-12-29T17:06:59.587Z,-0.10
2022-12-29T17:09:32.140Z,-0.10
2022-12-29T17:12:10.779Z,-0.10
2022-12-29T17:14:48.379Z,-0.20
2022-12-29T17:17:37.213Z,-0.10
2022-12-29T17:20:22.668Z,-0.20
2022-12-29T17:22:53.086Z,-0.30
2022-12-29T17:25:43.241Z,-0.30
2022-12-29T17:28:25.050Z,-0.30
2022-12-29T17:31:04.108Z,-0.30
2022-12-29T17:33:37.847Z,-0.20
2022-12-29T17:36:07.175Z,-0.20
2022-12-29T17:38:38.267Z,-0.10
2022-12-29T17:41:14.661Z,0.00
2022-12-29T17:43:42.625Z,0.00
2022-12-29T17:46:10.815Z,-0.10
2022-12-29T17:48:38.848Z,0.00
2022-12-29T17:51:06.818Z,0.10
2022-12-29T17:53:34.883Z,0.10
2022-12-29T17:56:02.756Z,0.30
2022-12-29T17:58:33.146Z,0.30
2022-12-29T18:01:02.203Z,0.40
2022-12-29T18:03:36.589Z,0.30
2022-12-29T18:06:07.350Z,0.40
2022-12-29T18:08:39.442Z,0.30
2022-12-29T18:11:22.723Z,0.40
2022-12-29T18:13:51.302Z,0.30
2022-12-29T18:16:22.867Z,0.30
2022-12-29T18:18:51.149Z,0.40
2022-12-29T18:21:22.435Z,0.50
2022-12-29T18:23:51.391Z,0.50
2022-12-29T18:26:28.270Z,0.60
2022-12-29T18:28:58.228Z,0.70
2022-12-29T18:31:32.391Z,0.70
2022-12-29T18:34:02.363Z,0.70
2022-12-29T18:36:30.997Z,0.80
2022-12-29T18:38:58.873Z,0.70
2022-12-29T18:41:32.437Z,0.80
2022-12-29T18:44:01.145Z,0.80
2022-12-29T18:46:29.869Z,0.80
2022-12-29T18:48:58.202Z,0.80
2022-12-29T18:51:26.995Z,0.90
2022-12-29T18:53:54.925Z,0.80
2022-12-29T18:56:25.731Z,0.80
2022-12-29T18:58:54.424Z,0.90
2022-12-29T19:01:28.396Z,0.90
2022-12-29T19:03:56.742Z,1.10
2022-12-29T19:06:25.227Z,1.10
2022-12-29T19:08:53.107Z,1.00
2022-12-29T19:11:24.443Z,1.10
2022-12-29T19:13:52.378Z,1.00
2022-12-29T19:16:22.121Z,1.10
2022-12-29T19:19:08.407Z,1.00
2022-12-29T19:21:37.882Z,1.00
2022-12-29T19:24:08.065Z,0.90
2022-12-29T19:26:39.463Z,0.90
2022-12-29T19:29:14.161Z,0.90
2022-12-29T19:31:42.849Z,0.80
2022-12-29T19:34:17.621Z,0.80
2022-12-29T19:36:46.352Z,0.90
2022-12-29T19:39:14.759Z,0.90
2022-12-29T19:41:43.242Z,1.00
2022-12-29T19:44:11.023Z,1.00
2022-12-29T19:46:40.221Z,0.90
2022-12-29T19:49:08.256Z,1.00
2022-12-29T19:51:36.744Z,1.00
2022-12-29T19:54:04.914Z,1.00
2022-12-29T19:56:32.703Z,0.80
2022-12-29T19:59:01.275Z,1.00
2022-12-29T20:01:33.535Z,1.00
2022-12-29T20:04:03.358Z,1.00
2022-12-29T20:06:31.438Z,1.00
2022-12-29T20:09:07.282Z,1.10
2022-12-29T20:11:36.727Z,1.10
2022-12-29T20:14:04.776Z,1.20
2022-12-29T20:16:33.137Z,1.30
2022-12-29T20:19:02.192Z,1.30
2022-12-29T20:21:32.068Z,1.20
2022-12-29T20:24:00.019Z,1.10
2022-12-29T20:26:30.681Z,1.20
2022-12-29T20:29:02.227Z,1.20
2022-12-29T20:31:33.323Z,1.30
2022-12-29T20:34:06.213Z,1.30
2022-12-29T20:36:37.796Z,1.40
2022-12-29T20:39:10.327Z,1.30
2022-12-29T20:41:38.391Z,1.10
2022-12-29T20:44:08.431Z,1.10
2022-12-29T20:46:43.618Z,1.10
2022-12-29T20:49:12.958Z,1.00
2022-12-29T20:52:05.519Z,1.00
2022-12-29T20:54:40.039Z,1.00
2022-12-29T20:57:08.411Z,0.90
2022-12-29T20:59:36.483Z,0.90
2022-12-29T21:02:04.973Z,0.90
2022-12-29T21:05:05.494Z,0.90
2022-12-29T21:07:24.375Z,0.80
2022-12-29T21:09:53.969Z,0.80
2022-12-29T21:12:22.248Z,0.80
2022-12-29T21:14:51.919Z,0.80
2022-12-29T21:17:19.940Z,0.80
2022-12-29T21:19:49.734Z,0.80
2022-12-29T21:22:18.175Z,0.80
2022-12-29T21:24:46.096Z,0.70
2022-12-29T21:27:14.318Z,0.70
2022-12-29T21:29:42.329Z,0.60
2022-12-29T21:32:11.202Z,0.60
2022-12-29T21:34:39.009Z,0.60
2022-12-29T21:37:07.580Z,0.50
2022-12-29T21:39:35.398Z,0.60
2022-12-29T21:42:11.830Z,0.50
2022-12-29T21:45:01.215Z,0.50
2022-12-29T21:47:49.142Z,0.60
2022-12-29T21:50:17.231Z,0.40
2022-12-29T21:52:45.030Z,0.40
2022-12-29T21:55:13.504Z,0.40
2022-12-29T21:58:04.566Z,0.40
2022-12-29T22:00:50.864Z,0.40
2022-12-29T22:03:37.296Z,0.40
2022-12-29T22:06:30.174Z,0.50
2022-12-29T22:09:20.272Z,0.40
2022-12-29T22:12:09.053Z,0.40
2022-12-29T22:14:36.792Z,0.30
2022-12-29T22:17:06.392Z,0.40
2022-12-29T22:19:37.242Z,0.30
2022-12-29T22:22:05.429Z,0.30
2022-12-29T22:24:33.662Z,0.20
2022-12-29T22:27:03.987Z,0.20
2022-12-29T22:29:31.827Z,0.20
2022-12-29T22:31:59.462Z,0.20
2022-12-29T22:34:27.864Z,0.30
2022-12-29T22:36:55.633Z,0.20
2022-12-29T22:39:23.354Z,0.20
2022-12-29T22:41:51.653Z,0.30
2022-12-29T22:44:19.730Z,0.40
2022-12-29T22:46:47.833Z,0.40
2022-12-29T22:49:15.868Z,0.50
2022-12-29T22:51:43.530Z,0.50
2022-12-29T22:54:11.865Z,0.50
2022-12-29T22:56:42.402Z,0.30
2022-12-29T22:59:14.658Z,0.40
2022-12-29T23:01:42.577Z,0.40
2022-12-29T23:04:55.787Z,0.40
2022-12-29T23:06:58.267Z,0.30
2022-12-29T23:09:25.945Z,0.40
2022-12-29T23:11:54.148Z,0.30
2022-12-29T23:14:22.378Z,0.30
2022-12-29T23:16:50.212Z,0.30
2022-12-29T23:19:18.215Z,0.30
2022-12-29T23:21:46.136Z,0.30
2022-12-29T23:24:14.845Z,0.30
2022-12-29T23:26:47.509Z,0.30
2022-12-29T23:29:18.695Z,0.20
2022-12-29T23:31:47.227Z,0.10
2022-12-29T23:34:17.190Z,0.10
2022-12-29T23:36:45.207Z,0.10
2022-12-29T23:39:21.000Z,0.10
2022-12-29T23:41:48.700Z,0.10
2022-12-29T23:44:17.034Z,0.20
2022-12-29T23:46:44.776Z,0.20
2022-12-29T23:49:12.486Z,0.10
2022-12-29T23:51:40.095Z,0.10
2022-12-29T23:54:08.143Z,0.10
2022-12-29T23:56:35.810Z,0.00
2022-12-29T23:59:05.494Z,0.10
